Hauptseite
METAR-TAF:

METAR-TAF

Flughäfen :

Zeltweg, Österreich

Fliegerhorst Hinterstoisser

Breite: 47-12N, Länge: 014-45E, Höhe: 677 m

Beobachtung

Neuester Wetterbericht von vor 29 Minuten, um 19:50 UTC
Windstille
Temperatur -9°C
Luftfeuchtigkeit 85%
Luftdruck 1025 hPa
Himmel klar

METAR: LOXZ 181950Z 00000KT 10KM SKC M09/M11 Q1025

Zeit: 21:19 (20:19 UTC)

Prognose

Neuester Wetterbericht von vor 9 Stunden und 4 Minuten, um 11:15 UTC
Gültige Prognose vom 18 um 12 UTC bis 18 um 21 UTC
Wind 3 kt aus unterschiedlichen Richtungen
Sichtweite 10 km oder mehr
Aufgelockert bewölkt in der Höhe von 5000 ft

TAF: LOXZ 181115Z 1812/1821 VRB03KT 9999 SCT050

Wetterbeobachtungen und Prognosen von mehr als 4000 Flughäfen (METAR und TAF Bericht).

Die verfügbaren Stationen werden durch gelbe und rote Markierungen auf der Karte dargestellt.

Führen Sie die Maus auf sie, um den Namen der Station zu sehen.

Darauf klicken, um die Beobachtung von Wetterbeobachtungen und Prognosen zu sehen.

Um die Karte zu ändern : klicken Sie auf den grünen Tasten mit einem schwarzen Kreuz Zum Vergrößern, auf den grünen Button mit einem Gedankenstrich zu verkleinern, oder auf die grünen Pfeile für benachbarte Karten.


METAR-TAF: